Time;durP1;ratioP1;P1;durP2;ratioP2;P2;SDS_P1;SDS_P2;PMS_P1;PMS_P2;Temp;Humidity;BMP_temperature;BMP_pressure;BME280_temperature;BME280_humidity;BME280_pressure;Samples;Min_cycle;Max_cycle;Signal;HPM_P1;HPM_P2
2022/01/15 00:02:05;;;;;;;27.30;13.27;;;;;;;;;;5083902;28;20177;-55
2022/01/15 00:04:31;;;;;;;22.17;12.50;;;;;;;;;;5086549;28;20168;-54
2022/01/15 00:06:58;;;;;;;26.73;13.43;;;;;;;;;;5086424;28;20627;-54
2022/01/15 00:09:24;;;;;;;22.03;11.73;;;;;;;;;;5082997;28;20229;-54
2022/01/15 00:11:51;;;;;;;21.43;12.30;;;;;;;;;;5082990;28;20179;-56
2022/01/15 00:14:26;;;;;;;20.83;11.43;;;;;;;;;;5086994;28;20184;-55
2022/01/15 00:17:06;;;;;;;23.50;13.13;;;;;;;;;;5082643;28;20564;-54
2022/01/15 00:19:51;;;;;;;21.00;12.17;;;;;;;;;;5067693;28;20172;-54
2022/01/15 00:22:18;;;;;;;21.47;13.00;;;;;;;;;;5084376;28;20568;-54
2022/01/15 00:24:45;;;;;;;20.90;12.50;;;;;;;;;;5085701;28;20175;-54
2022/01/15 00:27:12;;;;;;;21.27;12.67;;;;;;;;;;5087050;28;20644;-54
2022/01/15 00:29:38;;;;;;;21.77;11.63;;;;;;;;;;5085796;28;20678;-54
2022/01/15 00:32:05;;;;;;;20.80;11.87;;;;;;;;;;5083501;28;20176;-53
2022/01/15 00:34:32;;;;;;;23.83;11.83;;;;;;;;;;5085770;28;20595;-54
2022/01/15 00:36:58;;;;;;;20.40;11.60;;;;;;;;;;5086118;28;20176;-54
2022/01/15 00:39:24;;;;;;;19.17;11.23;;;;;;;;;;5085244;28;20418;-54
2022/01/15 00:41:50;;;;;;;18.67;10.90;;;;;;;;;;5084875;28;20218;-55
2022/01/15 00:44:16;;;;;;;24.63;12.50;;;;;;;;;;5068006;28;20520;-55
2022/01/15 00:46:43;;;;;;;19.13;12.23;;;;;;;;;;5083743;28;20176;-54
2022/01/15 00:49:10;;;;;;;19.70;10.80;;;;;;;;;;5085820;28;20185;-54
2022/01/15 00:51:36;;;;;;;23.77;11.73;;;;;;;;;;5084587;28;20243;-54
2022/01/15 00:54:03;;;;;;;23.33;13.07;;;;;;;;;;5086018;28;20212;-55
2022/01/15 00:56:29;;;;;;;22.67;11.97;;;;;;;;;;5085786;28;20219;-56
2022/01/15 00:58:56;;;;;;;26.27;11.90;;;;;;;;;;5076786;28;20285;-54
2022/01/15 01:01:22;;;;;;;23.53;12.93;;;;;;;;;;5067067;28;20176;-53
2022/01/15 01:03:48;;;;;;;20.10;11.47;;;;;;;;;;5065973;28;20230;-54
2022/01/15 01:06:15;;;;;;;22.53;12.63;;;;;;;;;;5068091;28;20255;-54
2022/01/15 01:08:41;;;;;;;20.53;11.43;;;;;;;;;;5065476;28;20655;-55
2022/01/15 01:11:13;;;;;;;20.60;11.73;;;;;;;;;;5084051;28;20256;-54
2022/01/15 01:24:14;;;;;;;22.70;12.27;;;;;;;;;;5062471;28;20199;-55
2022/01/15 01:26:50;;;;;;;24.53;12.07;;;;;;;;;;5068266;28;20192;-54
2022/01/15 01:34:41;;;;;;;19.20;11.67;;;;;;;;;;5011627;28;20237;-54
2022/01/15 01:37:19;;;;;;;18.50;11.87;;;;;;;;;;5066882;28;20425;-55
2022/01/15 01:39:49;;;;;;;18.17;10.57;;;;;;;;;;5076505;28;20175;-54
2022/01/15 01:45:00;;;;;;;24.37;12.07;;;;;;;;;;5063497;28;20421;-54
2022/01/15 01:47:39;;;;;;;20.70;10.67;;;;;;;;;;5066344;28;20683;-54
2022/01/15 01:50:05;;;;;;;26.70;12.30;;;;;;;;;;5075562;28;20691;-54
2022/01/15 01:52:32;;;;;;;22.20;11.53;;;;;;;;;;5077515;28;20254;-55
2022/01/15 01:54:58;;;;;;;20.63;11.83;;;;;;;;;;5075804;28;20172;-55
2022/01/15 01:57:24;;;;;;;18.13;11.43;;;;;;;;;;5081937;28;20714;-54
2022/01/15 01:59:50;;;;;;;22.30;12.83;;;;;;;;;;5080516;28;20182;-54
2022/01/15 02:02:16;;;;;;;18.37;10.63;;;;;;;;;;5079531;28;20662;-54
2022/01/15 02:04:42;;;;;;;22.67;12.17;;;;;;;;;;5074676;28;20497;-54
2022/01/15 02:07:08;;;;;;;20.43;10.67;;;;;;;;;;5080080;28;20182;-55
2022/01/15 02:09:35;;;;;;;21.77;12.37;;;;;;;;;;5074540;28;20183;-53
2022/01/15 02:12:01;;;;;;;20.93;10.80;;;;;;;;;;5072253;28;20214;-54
2022/01/15 02:14:27;;;;;;;21.20;12.00;;;;;;;;;;5078618;28;20207;-55
2022/01/15 02:16:53;;;;;;;19.40;10.90;;;;;;;;;;5068311;28;20179;-54
2022/01/15 02:19:19;;;;;;;21.43;11.20;;;;;;;;;;5069932;28;20602;-54
2022/01/15 02:24:17;;;;;;;20.70;10.37;;;;;;;;;;5071492;28;20221;-54
2022/01/15 02:26:43;;;;;;;18.10;11.10;;;;;;;;;;5059744;28;20246;-54
2022/01/15 02:29:10;;;;;;;19.50;10.83;;;;;;;;;;5071509;28;20605;-53
2022/01/15 02:31:37;;;;;;;21.53;11.50;;;;;;;;;;5075741;28;20235;-54
2022/01/15 02:34:04;;;;;;;16.93;10.77;;;;;;;;;;5078651;28;20223;-54
2022/01/15 02:36:32;;;;;;;19.87;10.77;;;;;;;;;;5053242;28;20200;-54
2022/01/15 02:38:58;;;;;;;19.53;10.93;;;;;;;;;;5076671;28;20191;-54
2022/01/15 02:41:31;;;;;;;21.93;10.30;;;;;;;;;;5073424;28;20180;-54
2022/01/15 02:43:58;;;;;;;19.97;10.33;;;;;;;;;;5076842;28;20454;-55
2022/01/15 02:48:55;;;;;;;18.43;9.93;;;;;;;;;;5069603;28;20431;-54
2022/01/15 02:51:22;;;;;;;19.97;10.33;;;;;;;;;;5076226;28;20201;-54
2022/01/15 02:53:54;;;;;;;23.43;12.10;;;;;;;;;;5069647;28;20188;-55
2022/01/15 02:56:21;;;;;;;18.17;10.63;;;;;;;;;;5075831;28;20483;-54
2022/01/15 02:58:47;;;;;;;18.37;10.13;;;;;;;;;;5069041;28;20768;-54
2022/01/15 03:01:13;;;;;;;19.63;9.77;;;;;;;;;;5059670;28;20182;-54
2022/01/15 03:03:39;;;;;;;20.10;9.80;;;;;;;;;;5073808;28;20421;-54
2022/01/15 03:06:09;;;;;;;17.77;10.30;;;;;;;;;;5069285;28;20215;-54
2022/01/15 03:08:36;;;;;;;22.87;10.97;;;;;;;;;;5069510;28;20176;-53
2022/01/15 03:11:02;;;;;;;16.87;9.23;;;;;;;;;;5075300;28;20629;-54
2022/01/15 03:13:28;;;;;;;17.97;10.70;;;;;;;;;;5075557;28;20441;-54
2022/01/15 03:15:54;;;;;;;18.37;10.60;;;;;;;;;;5081180;28;20305;-55
2022/01/15 03:18:22;;;;;;;18.00;10.33;;;;;;;;;;5065827;28;20176;-54
2022/01/15 03:20:48;;;;;;;22.60;10.63;;;;;;;;;;5067967;28;21080;-54
2022/01/15 03:23:14;;;;;;;19.40;10.57;;;;;;;;;;5060882;28;20189;-54
2022/01/15 03:25:40;;;;;;;19.20;9.67;;;;;;;;;;5072414;28;20184;-55
2022/01/15 03:28:06;;;;;;;18.87;9.73;;;;;;;;;;5043027;28;20207;-54
2022/01/15 03:30:33;;;;;;;18.97;10.57;;;;;;;;;;5073186;28;20457;-55
2022/01/15 03:32:59;;;;;;;20.33;11.07;;;;;;;;;;5077846;28;20215;-54
2022/01/15 03:35:25;;;;;;;19.83;9.23;;;;;;;;;;5067419;28;20169;-55
2022/01/15 03:37:51;;;;;;;16.10;9.10;;;;;;;;;;5068306;28;20703;-54
2022/01/15 03:40:17;;;;;;;19.37;9.67;;;;;;;;;;5068358;28;20925;-55
2022/01/15 03:42:44;;;;;;;17.13;10.37;;;;;;;;;;5068096;28;20427;-55
2022/01/15 03:45:11;;;;;;;21.33;11.00;;;;;;;;;;5070104;28;20222;-53
2022/01/15 03:47:37;;;;;;;18.73;9.77;;;;;;;;;;5065955;28;20188;-54
2022/01/15 03:50:03;;;;;;;18.27;9.73;;;;;;;;;;5067257;28;20497;-54
2022/01/15 03:52:30;;;;;;;22.13;11.47;;;;;;;;;;5073829;28;20540;-54
2022/01/15 03:54:56;;;;;;;15.40;8.97;;;;;;;;;;5070582;28;20173;-54
2022/01/15 03:57:22;;;;;;;15.60;9.23;;;;;;;;;;5065966;28;20239;-54
2022/01/15 03:59:49;;;;;;;17.77;9.57;;;;;;;;;;5046697;28;20916;-54
2022/01/15 04:02:15;;;;;;;15.83;9.30;;;;;;;;;;5066148;28;20505;-55
2022/01/15 04:04:41;;;;;;;17.63;10.43;;;;;;;;;;5065608;28;20203;-54
2022/01/15 04:07:07;;;;;;;18.00;8.90;;;;;;;;;;5066012;28;20168;-54
2022/01/15 04:09:33;;;;;;;15.90;9.37;;;;;;;;;;5066087;28;20187;-53
2022/01/15 04:11:59;;;;;;;14.53;8.80;;;;;;;;;;5064928;28;20184;-55
2022/01/15 04:14:25;;;;;;;14.63;8.23;;;;;;;;;;5065437;28;20172;-54
2022/01/15 04:16:51;;;;;;;15.40;8.67;;;;;;;;;;5064272;28;20185;-54
2022/01/15 04:19:17;;;;;;;13.63;7.90;;;;;;;;;;5047467;28;20207;-54
2022/01/15 04:21:43;;;;;;;14.03;8.67;;;;;;;;;;5065431;28;20176;-55
2022/01/15 04:24:09;;;;;;;12.63;7.40;;;;;;;;;;5064867;28;20445;-55
2022/01/15 04:26:35;;;;;;;12.67;7.93;;;;;;;;;;5063893;28;20176;-54
2022/01/15 04:29:04;;;;;;;12.67;7.87;;;;;;;;;;5063671;28;20561;-53
2022/01/15 04:31:48;;;;;;;13.70;8.47;;;;;;;;;;5064678;28;20243;-55
2022/01/15 04:34:19;;;;;;;10.33;6.63;;;;;;;;;;5064704;28;20565;-54
2022/01/15 04:36:45;;;;;;;11.87;6.97;;;;;;;;;;5065049;28;20513;-53
2022/01/15 04:39:12;;;;;;;15.27;8.37;;;;;;;;;;5065673;28;20450;-53
2022/01/15 04:41:38;;;;;;;11.13;7.80;;;;;;;;;;5063842;28;20921;-54
2022/01/15 04:44:05;;;;;;;13.30;7.47;;;;;;;;;;5063450;28;20957;-54
2022/01/15 04:46:31;;;;;;;14.07;7.70;;;;;;;;;;5065851;28;20427;-54
2022/01/15 04:48:57;;;;;;;15.87;7.43;;;;;;;;;;5063582;28;20641;-53
2022/01/15 04:51:23;;;;;;;12.70;7.47;;;;;;;;;;5061207;28;20478;-54
2022/01/15 04:53:49;;;;;;;14.47;8.37;;;;;;;;;;5062629;28;20431;-55
2022/01/15 04:56:15;;;;;;;13.60;7.63;;;;;;;;;;5063866;28;20251;-55
2022/01/15 04:58:41;;;;;;;12.27;6.97;;;;;;;;;;5065783;28;20282;-53
2022/01/15 05:01:07;;;;;;;14.33;8.13;;;;;;;;;;5064470;28;20208;-54
2022/01/15 05:03:33;;;;;;;12.20;7.87;;;;;;;;;;5063172;28;20186;-54
2022/01/15 05:06:00;;;;;;;12.83;7.57;;;;;;;;;;5065040;28;20682;-53
2022/01/15 05:08:26;;;;;;;11.50;7.67;;;;;;;;;;5065608;28;20414;-54
2022/01/15 05:10:54;;;;;;;10.53;6.97;;;;;;;;;;5063969;28;20539;-53
2022/01/15 05:13:26;;;;;;;10.63;7.43;;;;;;;;;;5065460;28;20774;-55
2022/01/15 05:15:52;;;;;;;13.97;7.67;;;;;;;;;;5061682;28;20185;-54
2022/01/15 05:18:18;;;;;;;14.27;7.53;;;;;;;;;;5065319;28;20453;-54
2022/01/15 05:20:45;;;;;;;12.13;7.87;;;;;;;;;;5060632;28;20454;-53
2022/01/15 05:23:12;;;;;;;12.83;8.10;;;;;;;;;;5046463;28;20579;-53
2022/01/15 05:25:38;;;;;;;13.50;7.90;;;;;;;;;;5058337;28;20780;-55
2022/01/15 05:28:04;;;;;;;11.77;8.33;;;;;;;;;;5061575;28;20438;-55
2022/01/15 05:30:31;;;;;;;14.40;7.97;;;;;;;;;;5064154;28;20465;-55
2022/01/15 05:32:58;;;;;;;12.87;7.83;;;;;;;;;;5058217;28;20510;-54
2022/01/15 05:35:26;;;;;;;12.23;7.77;;;;;;;;;;5068569;28;20422;-54
2022/01/15 05:38:01;;;;;;;13.17;8.40;;;;;;;;;;5066644;28;20418;-53
2022/01/15 05:40:27;;;;;;;13.67;7.83;;;;;;;;;;5060652;28;20411;-54
2022/01/15 05:42:53;;;;;;;9.83;7.77;;;;;;;;;;5064920;28;20897;-54
2022/01/15 05:45:21;;;;;;;12.70;8.60;;;;;;;;;;5060217;28;20395;-54
2022/01/15 05:47:47;;;;;;;13.10;8.57;;;;;;;;;;5067001;28;20208;-54
2022/01/15 05:50:14;;;;;;;11.80;7.93;;;;;;;;;;5064013;28;20738;-54
2022/01/15 05:52:40;;;;;;;13.00;8.47;;;;;;;;;;5068298;28;20986;-53
2022/01/15 05:55:07;;;;;;;10.67;7.03;;;;;;;;;;5065240;28;20177;-55
2022/01/15 05:57:33;;;;;;;12.83;7.97;;;;;;;;;;5072333;28;20939;-53
2022/01/15 05:59:59;;;;;;;12.47;7.67;;;;;;;;;;5061370;28;20181;-54
2022/01/15 06:02:26;;;;;;;12.17;7.73;;;;;;;;;;5056814;28;20208;-54
2022/01/15 06:04:52;;;;;;;9.67;7.17;;;;;;;;;;5063097;28;20172;-54
2022/01/15 06:07:18;;;;;;;11.60;7.43;;;;;;;;;;5058963;28;20489;-54
2022/01/15 06:09:44;;;;;;;9.77;8.07;;;;;;;;;;5061238;28;20220;-54
2022/01/15 06:12:10;;;;;;;11.17;7.43;;;;;;;;;;5046219;28;20644;-53
2022/01/15 06:14:36;;;;;;;11.00;7.43;;;;;;;;;;5060169;28;20185;-54
2022/01/15 06:17:08;;;;;;;10.80;8.03;;;;;;;;;;5053214;28;20435;-55
2022/01/15 06:19:34;;;;;;;11.80;8.10;;;;;;;;;;5064278;28;20702;-55
2022/01/15 06:22:00;;;;;;;9.87;6.90;;;;;;;;;;5060918;28;20191;-54
2022/01/15 06:24:26;;;;;;;10.43;7.63;;;;;;;;;;5062305;28;20184;-55
2022/01/15 06:26:52;;;;;;;11.48;8.98;;;;;;;;;;5055980;28;20883;-54
2022/01/15 06:29:20;;;;;;;11.10;8.43;;;;;;;;;;5064042;28;20639;-54
2022/01/15 06:31:46;;;;;;;10.73;9.07;;;;;;;;;;5059996;28;20909;-55
2022/01/15 06:34:12;;;;;;;9.90;7.80;;;;;;;;;;5042044;28;20260;-52
2022/01/15 06:36:38;;;;;;;9.73;6.77;;;;;;;;;;5067496;28;20259;-54
2022/01/15 06:39:04;;;;;;;11.00;7.53;;;;;;;;;;5067227;28;20219;-54
2022/01/15 06:41:30;;;;;;;10.80;7.13;;;;;;;;;;5062430;28;20192;-54
2022/01/15 06:43:56;;;;;;;10.03;7.93;;;;;;;;;;5066611;28;20191;-55
2022/01/15 06:46:22;;;;;;;9.87;7.40;;;;;;;;;;5055384;28;20230;-54
2022/01/15 06:48:48;;;;;;;12.73;8.47;;;;;;;;;;5062480;28;20242;-54
2022/01/15 06:51:15;;;;;;;9.83;7.27;;;;;;;;;;5050840;28;20239;-55
2022/01/15 06:53:41;;;;;;;11.13;6.67;;;;;;;;;;5066747;28;20552;-54
2022/01/15 06:56:07;;;;;;;10.20;7.13;;;;;;;;;;5075733;28;20461;-55
2022/01/15 06:58:33;;;;;;;11.47;7.47;;;;;;;;;;5091207;28;20945;-54
2022/01/15 07:00:59;;;;;;;11.13;7.43;;;;;;;;;;5090160;28;20843;-54
2022/01/15 07:03:25;;;;;;;13.23;7.50;;;;;;;;;;5082789;28;20433;-54
2022/01/15 07:05:51;;;;;;;10.37;7.30;;;;;;;;;;5087707;28;20442;-54
2022/01/15 07:08:17;;;;;;;10.70;7.23;;;;;;;;;;5088921;28;20953;-54
2022/01/15 07:10:44;;;;;;;10.07;7.43;;;;;;;;;;5085361;28;20222;-53
2022/01/15 07:13:10;;;;;;;11.37;7.87;;;;;;;;;;5089191;28;20254;-53
2022/01/15 07:15:36;;;;;;;11.57;8.03;;;;;;;;;;5105737;28;20417;-54
2022/01/15 07:18:02;;;;;;;11.60;7.60;;;;;;;;;;5097686;28;20458;-55
2022/01/15 07:20:28;;;;;;;12.60;7.93;;;;;;;;;;5077789;28;20637;-54
2022/01/15 07:22:55;;;;;;;11.53;8.00;;;;;;;;;;5100537;28;20425;-53
2022/01/15 07:25:21;;;;;;;13.50;8.10;;;;;;;;;;5099470;28;20171;-53
2022/01/15 07:27:47;;;;;;;13.40;8.80;;;;;;;;;;5101693;28;20198;-54
2022/01/15 07:30:14;;;;;;;12.80;8.13;;;;;;;;;;5105128;28;20219;-54
2022/01/15 07:32:42;;;;;;;11.67;7.97;;;;;;;;;;5087691;28;20511;-54
2022/01/15 07:35:09;;;;;;;10.40;7.47;;;;;;;;;;5084070;28;20682;-54
2022/01/15 07:37:35;;;;;;;11.33;8.87;;;;;;;;;;5086633;28;20931;-53
2022/01/15 07:40:02;;;;;;;13.83;8.47;;;;;;;;;;5083750;28;20184;-54
2022/01/15 07:42:34;;;;;;;11.77;7.47;;;;;;;;;;5062541;28;20714;-55
2022/01/15 07:45:00;;;;;;;11.40;7.97;;;;;;;;;;5066194;28;20298;-54
2022/01/15 07:47:26;;;;;;;12.97;9.60;;;;;;;;;;5074752;28;20228;-54
2022/01/15 07:49:52;;;;;;;12.67;8.33;;;;;;;;;;5086380;28;20289;-55
2022/01/15 07:52:19;;;;;;;13.13;8.23;;;;;;;;;;5084542;28;20664;-54
2022/01/15 07:54:45;;;;;;;14.27;8.67;;;;;;;;;;5087449;28;20179;-54
2022/01/15 07:57:11;;;;;;;13.27;9.30;;;;;;;;;;5073417;28;20458;-52
2022/01/15 07:59:37;;;;;;;14.30;9.33;;;;;;;;;;5067595;28;20215;-55
2022/01/15 08:02:03;;;;;;;11.63;7.93;;;;;;;;;;5067913;28;20418;-54
2022/01/15 08:04:29;;;;;;;13.30;9.27;;;;;;;;;;5076019;28;20521;-54
2022/01/15 08:06:55;;;;;;;12.93;8.23;;;;;;;;;;5087156;28;20176;-54
2022/01/15 08:09:22;;;;;;;12.40;8.57;;;;;;;;;;5083743;28;20233;-54
2022/01/15 08:11:48;;;;;;;13.63;8.57;;;;;;;;;;5068737;28;20339;-54
2022/01/15 08:14:14;;;;;;;13.70;9.27;;;;;;;;;;5068891;28;21038;-54
2022/01/15 08:16:40;;;;;;;12.90;8.40;;;;;;;;;;5058331;28;20214;-53
2022/01/15 08:19:06;;;;;;;13.43;9.07;;;;;;;;;;5077636;28;20209;-55
2022/01/15 08:21:32;;;;;;;13.40;8.60;;;;;;;;;;5062677;28;20430;-54
2022/01/15 08:23:58;;;;;;;14.73;9.47;;;;;;;;;;5080309;28;20187;-55
2022/01/15 08:26:24;;;;;;;11.90;8.57;;;;;;;;;;5072111;28;20172;-53
2022/01/15 08:28:50;;;;;;;15.43;9.27;;;;;;;;;;5052019;28;20517;-53
2022/01/15 08:31:16;;;;;;;13.90;8.83;;;;;;;;;;5068091;28;20427;-54
2022/01/15 08:33:42;;;;;;;15.87;9.53;;;;;;;;;;5070510;28;20654;-54
2022/01/15 08:36:10;;;;;;;14.17;9.10;;;;;;;;;;5066327;28;20447;-55
2022/01/15 08:38:36;;;;;;;15.47;8.93;;;;;;;;;;5068750;28;20470;-54
2022/01/15 08:41:02;;;;;;;13.97;9.17;;;;;;;;;;5047435;28;20230;-56
2022/01/15 08:43:28;;;;;;;15.40;8.60;;;;;;;;;;5067288;28;20204;-53
2022/01/15 08:45:54;;;;;;;14.37;9.40;;;;;;;;;;5062102;28;20578;-54
2022/01/15 08:48:20;;;;;;;13.73;8.83;;;;;;;;;;5062751;28;20276;-54
2022/01/15 08:50:49;;;;;;;16.83;9.30;;;;;;;;;;5064813;28;20975;-55
2022/01/15 08:53:17;;;;;;;14.50;8.80;;;;;;;;;;5042577;28;20419;-54
2022/01/15 08:55:44;;;;;;;16.27;9.33;;;;;;;;;;5052960;28;20398;-54
2022/01/15 08:58:10;;;;;;;12.73;8.93;;;;;;;;;;5064714;28;20442;-54
2022/01/15 09:00:36;;;;;;;13.47;9.20;;;;;;;;;;5079029;28;20474;-53
2022/01/15 09:03:02;;;;;;;14.77;8.90;;;;;;;;;;5084683;28;20180;-53
2022/01/15 09:05:30;;;;;;;13.20;8.77;;;;;;;;;;5083194;28;20417;-53
2022/01/15 09:07:56;;;;;;;13.83;9.20;;;;;;;;;;5080593;28;20191;-54
2022/01/15 09:10:23;;;;;;;14.47;10.20;;;;;;;;;;5087198;28;20203;-54
2022/01/15 09:12:49;;;;;;;14.37;9.13;;;;;;;;;;5066349;28;21236;-54
2022/01/15 09:15:16;;;;;;;14.00;9.50;;;;;;;;;;5089026;28;20414;-54
2022/01/15 09:17:42;;;;;;;13.83;9.57;;;;;;;;;;5085258;28;20422;-53
2022/01/15 09:20:09;;;;;;;14.60;9.00;;;;;;;;;;5068281;28;20185;-53
2022/01/15 09:22:35;;;;;;;15.53;9.10;;;;;;;;;;5088515;28;20834;-54
2022/01/15 09:25:01;;;;;;;14.27;9.13;;;;;;;;;;5089707;28;20540;-54
2022/01/15 09:30:13;;;;;;;55.37;13.40;;;;;;;;;;5085272;28;20513;-54
2022/01/15 09:32:39;;;;;;;274.07;31.57;;;;;;;;;;5089872;28;20179;-56
2022/01/15 09:35:06;;;;;;;216.17;32.20;;;;;;;;;;5090841;28;20409;-54
2022/01/15 09:37:32;;;;;;;200.47;26.90;;;;;;;;;;5089692;28;20414;-54
2022/01/15 09:39:58;;;;;;;135.40;21.13;;;;;;;;;;5084806;28;20406;-55
2022/01/15 09:42:24;;;;;;;131.43;18.47;;;;;;;;;;5087698;28;20508;-51
2022/01/15 09:44:51;;;;;;;57.67;14.07;;;;;;;;;;5069139;28;20787;-55
2022/01/15 09:47:17;;;;;;;54.77;15.77;;;;;;;;;;5089529;28;20176;-54
2022/01/15 09:49:45;;;;;;;55.93;13.07;;;;;;;;;;5089686;28;20176;-54
2022/01/15 09:52:12;;;;;;;48.80;12.83;;;;;;;;;;5086589;28;20488;-53
2022/01/15 09:54:39;;;;;;;63.20;13.30;;;;;;;;;;5085146;28;20665;-51
2022/01/15 09:57:05;;;;;;;42.33;11.33;;;;;;;;;;5076123;28;20262;-51
2022/01/15 09:59:31;;;;;;;23.07;10.63;;;;;;;;;;5050309;28;20184;-55
2022/01/15 10:02:02;;;;;;;17.33;8.83;;;;;;;;;;5067707;28;20442;-54
2022/01/15 10:04:31;;;;;;;12.83;7.30;;;;;;;;;;5065579;28;20184;-53
2022/01/15 10:07:07;;;;;;;11.83;8.20;;;;;;;;;;5071103;28;20427;-53
2022/01/15 10:09:33;;;;;;;15.43;8.47;;;;;;;;;;5069771;28;20180;-53
2022/01/15 10:12:00;;;;;;;15.50;9.70;;;;;;;;;;5051822;28;20977;-53
2022/01/15 10:14:27;;;;;;;12.57;8.17;;;;;;;;;;5069437;28;20207;-54
2022/01/15 10:16:55;;;;;;;13.50;8.37;;;;;;;;;;5068791;28;20423;-53
2022/01/15 10:19:25;;;;;;;12.93;7.90;;;;;;;;;;5071725;28;20202;-54
2022/01/15 10:22:09;;;;;;;10.93;7.83;;;;;;;;;;5058387;28;20586;-53
2022/01/15 10:24:36;;;;;;;10.63;7.67;;;;;;;;;;5057255;28;20693;-57
2022/01/15 10:27:21;;;;;;;10.37;7.07;;;;;;;;;;5068221;28;20422;-56
2022/01/15 10:30:05;;;;;;;11.47;7.37;;;;;;;;;;5064944;28;20545;-56
2022/01/15 10:32:33;;;;;;;9.37;6.90;;;;;;;;;;5062882;28;20782;-56
2022/01/15 10:35:00;;;;;;;10.20;7.03;;;;;;;;;;5067934;28;20434;-56
2022/01/15 10:37:34;;;;;;;11.57;7.50;;;;;;;;;;5065598;28;20441;-54
2022/01/15 10:40:08;;;;;;;18.03;8.17;;;;;;;;;;5063966;28;20286;-52
2022/01/15 10:42:34;;;;;;;9.13;6.83;;;;;;;;;;5066407;28;20403;-55
2022/01/15 10:45:08;;;;;;;12.67;8.43;;;;;;;;;;5066651;28;20435;-55
2022/01/15 10:47:39;;;;;;;19.03;8.20;;;;;;;;;;5064535;28;20510;-55
2022/01/15 10:50:05;;;;;;;10.90;7.63;;;;;;;;;;5062004;28;20434;-55
2022/01/15 10:52:31;;;;;;;12.80;7.27;;;;;;;;;;5063604;28;21499;-55
2022/01/15 10:55:08;;;;;;;9.10;7.20;;;;;;;;;;5064657;28;20461;-55
2022/01/15 10:57:45;;;;;;;10.87;7.23;;;;;;;;;;5067165;28;20478;-54
2022/01/15 11:00:11;;;;;;;10.47;6.87;;;;;;;;;;5062608;28;20751;-54
2022/01/15 11:02:38;;;;;;;11.23;7.57;;;;;;;;;;5063250;28;20439;-55
2022/01/15 11:05:19;;;;;;;9.67;7.50;;;;;;;;;;5062739;28;20176;-53
2022/01/15 11:07:45;;;;;;;9.17;6.97;;;;;;;;;;5062112;28;20752;-54
2022/01/15 11:10:11;;;;;;;10.83;6.93;;;;;;;;;;5062212;28;20548;-55
2022/01/15 11:12:37;;;;;;;10.93;7.17;;;;;;;;;;5064310;28;20427;-55
2022/01/15 11:15:03;;;;;;;11.10;7.00;;;;;;;;;;5062278;28;20268;-54
2022/01/15 11:17:30;;;;;;;9.07;6.50;;;;;;;;;;5064879;28;20543;-54
2022/01/15 11:19:56;;;;;;;9.43;7.50;;;;;;;;;;5058571;28;20422;-54
2022/01/15 11:22:22;;;;;;;9.77;6.90;;;;;;;;;;5066342;28;20458;-55
2022/01/15 11:24:49;;;;;;;10.77;7.57;;;;;;;;;;5066597;28;20497;-55
2022/01/15 11:27:16;;;;;;;9.57;7.13;;;;;;;;;;5067011;28;20461;-55
2022/01/15 11:29:43;;;;;;;9.57;6.83;;;;;;;;;;5041451;28;20427;-55
2022/01/15 11:32:12;;;;;;;9.97;7.93;;;;;;;;;;5044992;28;20557;-55
2022/01/15 11:34:39;;;;;;;9.70;7.20;;;;;;;;;;5065037;28;20177;-55
2022/01/15 11:37:20;;;;;;;10.53;7.07;;;;;;;;;;5064529;28;20411;-53
2022/01/15 11:39:47;;;;;;;9.87;6.90;;;;;;;;;;5063225;28;20639;-55
2022/01/15 11:42:35;;;;;;;9.73;6.83;;;;;;;;;;5062635;28;20513;-54
2022/01/15 11:45:01;;;;;;;10.67;7.40;;;;;;;;;;5058426;28;20847;-54
2022/01/15 11:47:27;;;;;;;10.93;7.10;;;;;;;;;;5056457;28;20192;-54
2022/01/15 11:50:00;;;;;;;9.50;7.33;;;;;;;;;;5045032;28;20204;-55
2022/01/15 11:52:34;;;;;;;10.67;7.77;;;;;;;;;;5085859;27;20904;-56
2022/01/15 11:55:02;;;;;;;9.27;6.97;;;;;;;;;;5066794;28;20483;-56
2022/01/15 11:57:30;;;;;;;9.47;6.87;;;;;;;;;;5082623;28;20438;-56
2022/01/15 11:59:59;;;;;;;10.83;7.37;;;;;;;;;;5055846;28;20187;-56
2022/01/15 12:02:26;;;;;;;8.73;6.80;;;;;;;;;;5056781;28;20433;-56
2022/01/15 12:04:52;;;;;;;9.03;6.57;;;;;;;;;;5066967;28;20937;-56
2022/01/15 12:07:22;;;;;;;11.00;6.97;;;;;;;;;;5069919;28;20180;-56
2022/01/15 12:09:49;;;;;;;8.03;5.73;;;;;;;;;;5061827;28;20857;-55
2022/01/15 12:12:25;;;;;;;10.63;6.87;;;;;;;;;;5066230;28;20203;-56
2022/01/15 12:14:52;;;;;;;9.57;6.87;;;;;;;;;;5062594;28;20659;-56
2022/01/15 12:17:24;;;;;;;8.70;6.23;;;;;;;;;;5066065;28;20423;-57
2022/01/15 12:19:51;;;;;;;8.83;6.30;;;;;;;;;;5061603;28;20418;-55
2022/01/15 12:22:36;;;;;;;8.60;6.90;;;;;;;;;;5072502;28;20430;-56
2022/01/15 12:25:03;;;;;;;7.17;5.97;;;;;;;;;;5066221;28;20451;-56
2022/01/15 12:27:30;;;;;;;8.20;5.87;;;;;;;;;;5060979;28;20775;-57
2022/01/15 12:30:02;;;;;;;7.93;6.53;;;;;;;;;;5055700;28;20745;-56
2022/01/15 12:32:29;;;;;;;10.00;6.80;;;;;;;;;;5060713;28;20462;-56
2022/01/15 12:34:56;;;;;;;7.57;6.20;;;;;;;;;;5066322;28;20781;-56
2022/01/15 12:37:22;;;;;;;8.73;6.37;;;;;;;;;;5062908;28;20422;-57
2022/01/15 12:39:52;;;;;;;8.13;6.63;;;;;;;;;;5062113;28;20423;-55
2022/01/15 12:42:20;;;;;;;7.43;6.10;;;;;;;;;;5066042;28;20553;-56
2022/01/15 12:44:47;;;;;;;9.10;6.80;;;;;;;;;;5058078;28;20180;-56
2022/01/15 12:47:15;;;;;;;9.73;6.90;;;;;;;;;;5055381;28;20217;-56
2022/01/15 12:49:42;;;;;;;8.43;6.90;;;;;;;;;;5067525;28;20176;-54
2022/01/15 12:52:16;;;;;;;9.17;6.47;;;;;;;;;;5055812;28;20608;-54
2022/01/15 12:54:46;;;;;;;8.03;6.10;;;;;;;;;;5059535;28;20660;-54
2022/01/15 12:57:12;;;;;;;9.77;6.87;;;;;;;;;;5058318;28;20224;-54
2022/01/15 12:59:39;;;;;;;10.70;7.07;;;;;;;;;;5061630;28;20427;-54
2022/01/15 13:02:05;;;;;;;22.33;7.30;;;;;;;;;;5055296;28;20419;-55
2022/01/15 13:04:32;;;;;;;14.40;7.70;;;;;;;;;;5046853;28;20480;-55
2022/01/15 13:06:59;;;;;;;12.27;7.93;;;;;;;;;;5051209;28;20185;-55
2022/01/15 13:09:38;;;;;;;10.10;6.63;;;;;;;;;;5045101;28;20420;-55
2022/01/15 13:12:07;;;;;;;13.07;6.23;;;;;;;;;;5039770;28;20217;-55
2022/01/15 13:14:41;;;;;;;7.90;6.23;;;;;;;;;;5052850;28;20185;-55
2022/01/15 13:17:26;;;;;;;9.17;5.67;;;;;;;;;;5051082;28;20223;-54
2022/01/15 13:19:52;;;;;;;10.10;5.80;;;;;;;;;;5052337;28;20699;-55
2022/01/15 13:22:22;;;;;;;7.30;5.70;;;;;;;;;;5052128;28;20192;-55
2022/01/15 13:24:56;;;;;;;6.80;5.60;;;;;;;;;;5046860;28;20280;-55
2022/01/15 13:27:23;;;;;;;7.27;5.83;;;;;;;;;;5043800;28;20226;-55
2022/01/15 13:29:49;;;;;;;10.10;6.27;;;;;;;;;;5053425;28;20648;-55
2022/01/15 13:32:15;;;;;;;11.00;7.13;;;;;;;;;;5043465;28;20189;-55
2022/01/15 13:34:48;;;;;;;11.03;7.97;;;;;;;;;;5052559;28;20211;-55
2022/01/15 13:37:18;;;;;;;8.10;6.97;;;;;;;;;;5046081;28;20652;-55
2022/01/15 13:39:45;;;;;;;7.37;6.13;;;;;;;;;;5046591;28;20169;-55
2022/01/15 13:42:35;;;;;;;7.73;6.43;;;;;;;;;;5047717;28;20184;-55
2022/01/15 13:45:05;;;;;;;11.53;5.80;;;;;;;;;;5050284;28;20717;-56
2022/01/15 13:47:33;;;;;;;7.27;5.53;;;;;;;;;;5052266;28;20277;-55
2022/01/15 13:55:30;;;;;;;6.93;5.70;;;;;;;;;;5052811;28;20268;-55
2022/01/15 13:58:10;;;;;;;8.27;6.47;;;;;;;;;;5065255;28;20200;-55
2022/01/15 14:00:37;;;;;;;7.70;6.50;;;;;;;;;;5048568;28;20711;-55
2022/01/15 14:03:04;;;;;;;8.77;6.73;;;;;;;;;;5065080;28;20177;-55
2022/01/15 14:05:30;;;;;;;10.37;5.77;;;;;;;;;;5052018;28;20927;-55
2022/01/15 14:07:56;;;;;;;8.20;6.43;;;;;;;;;;5049372;28;20418;-55
2022/01/15 14:10:25;;;;;;;8.80;6.33;;;;;;;;;;5046450;28;20182;-54
2022/01/15 14:12:59;;;;;;;7.83;6.77;;;;;;;;;;5032068;28;20424;-55
2022/01/15 14:15:32;;;;;;;8.67;6.50;;;;;;;;;;5046179;28;20451;-55
2022/01/15 14:18:01;;;;;;;9.23;7.07;;;;;;;;;;5047656;28;20447;-55
2022/01/15 14:21:15;;;;;;;7.40;6.60;;;;;;;;;;5050441;28;20419;-55
2022/01/15 14:23:43;;;;;;;8.13;6.43;;;;;;;;;;5045305;28;20184;-55
2022/01/15 14:26:16;;;;;;;8.00;6.77;;;;;;;;;;5052045;28;20750;-55
2022/01/15 14:28:42;;;;;;;10.10;7.40;;;;;;;;;;5040658;28;20781;-56
2022/01/15 14:31:08;;;;;;;11.80;7.50;;;;;;;;;;5044939;28;20205;-56
2022/01/15 14:33:35;;;;;;;8.43;7.17;;;;;;;;;;5046603;28;20267;-57
2022/01/15 14:36:03;;;;;;;8.93;6.97;;;;;;;;;;5046416;28;20593;-57
2022/01/15 14:38:29;;;;;;;9.20;6.77;;;;;;;;;;5058640;28;20246;-56
2022/01/15 14:40:55;;;;;;;8.63;7.07;;;;;;;;;;5045877;28;20930;-57
2022/01/15 14:43:22;;;;;;;7.97;6.13;;;;;;;;;;5044994;28;20660;-56
2022/01/15 14:45:49;;;;;;;8.07;6.17;;;;;;;;;;5037592;28;20590;-56
2022/01/15 14:48:15;;;;;;;10.30;7.00;;;;;;;;;;5046194;28;20384;-58
2022/01/15 14:50:44;;;;;;;8.37;6.73;;;;;;;;;;5049060;28;20514;-56
2022/01/15 14:53:10;;;;;;;6.90;6.00;;;;;;;;;;5058743;28;20776;-56
2022/01/15 14:55:36;;;;;;;8.07;6.40;;;;;;;;;;5047924;28;20172;-56
2022/01/15 14:58:03;;;;;;;7.43;6.63;;;;;;;;;;5042210;28;20789;-56
2022/01/15 15:00:29;;;;;;;7.93;6.10;;;;;;;;;;5047107;28;20720;-56
2022/01/15 15:02:55;;;;;;;7.77;6.23;;;;;;;;;;5049129;28;20446;-56
2022/01/15 15:05:21;;;;;;;8.10;6.90;;;;;;;;;;5039011;28;20853;-57